»·PEaware :: SAS1146 KNYL-KLAX

SAS1146 :: KNYL-KLAX

FLIGHT INFORMATION

Flight Status: Arrived
Operator:
SAS
More flights by this operator :: More flights under this callsign
Pilot: Aleks L. (1619)
Aircraft: AIRBUS A320
(A320)
More flights by this aircraft type
Origin: KNYL Yuma MCAS/Yuma Intl
United States
Destination: KLAX Los Angeles Intl
United States
More flights between these airports :: More routes between these airports
Route: +CARGO8 IPL GWIRE JLI OLDEE1
File this flight plan on PilotEdge
Remarks:
Altitude:
(Current/Filed)
20,000ft
Speed:
(Current/Filed)
480kts
Departed: 09-Sep-14 01:47 PM
Arrived: 09-Sep-14 02:33 PM
Distance/Time
Traveled:
205nm/0:46
Distance/Time
To Go:
Arrived

Flight Plot

Page will automatically refresh every two minutes.

Flight plan parsing failed; only flown route is shown


Map Options




Map Legend


Flown Route
Filed Route
Departure Airport
Arrival Airport
Navaid (VOR, NDB)
Fix

Horizontal Profiles

Position Reports

Time Latitude Longitude Heading Altitude Ground
Speed
09-Sep-14 13:08 32.667647 -114.599574 179 205ft 0kts
09-Sep-14 13:09 32.667647 -114.599574 179 205ft 0kts
09-Sep-14 13:10 32.667647 -114.599574 179 205ft 0kts
09-Sep-14 13:11 32.667647 -114.599574 179 205ft 0kts
09-Sep-14 13:12 32.667647 -114.599574 179 205ft 0kts
09-Sep-14 13:13 32.667647 -114.599574 179 205ft 0kts
09-Sep-14 13:14 32.667647 -114.599574 179 205ft 0kts
09-Sep-14 13:15 32.667647 -114.599585 0 205ft 0kts
09-Sep-14 13:16 32.667602 -114.599585 180 205ft 0kts
09-Sep-14 13:17 32.667598 -114.599585 180 205ft 0kts
09-Sep-14 13:18 32.667593 -114.599586 180 205ft 0kts
09-Sep-14 13:20 32.667655 -114.599574 179 205ft 0kts
09-Sep-14 13:21 32.667655 -114.599574 179 205ft 0kts
09-Sep-14 13:22 32.667655 -114.599574 179 205ft 0kts
09-Sep-14 13:23 32.667655 -114.599574 179 205ft 0kts
09-Sep-14 13:24 32.667655 -114.599574 179 205ft 0kts
09-Sep-14 13:25 32.667655 -114.599574 179 205ft 0kts
09-Sep-14 13:26 32.667655 -114.599574 179 205ft 0kts
09-Sep-14 13:27 32.667655 -114.599574 179 205ft 0kts
09-Sep-14 13:28 32.667655 -114.599574 179 205ft 0kts
09-Sep-14 13:29 32.667655 -114.599574 179 205ft 0kts
09-Sep-14 13:30 32.667655 -114.599574 179 205ft 0kts
09-Sep-14 13:31 32.667655 -114.599574 179 205ft 0kts
09-Sep-14 13:32 32.667655 -114.599574 179 205ft 0kts
09-Sep-14 13:33 32.667655 -114.599574 179 205ft 0kts
09-Sep-14 13:34 32.667655 -114.599574 179 205ft 0kts
09-Sep-14 13:35 32.667655 -114.599574 179 205ft 0kts
09-Sep-14 13:36 32.667655 -114.599574 179 205ft 0kts
09-Sep-14 13:37 32.667655 -114.599574 179 205ft 0kts
09-Sep-14 13:38 32.667655 -114.599574 179 205ft 0kts
09-Sep-14 13:39 32.667655 -114.599574 179 205ft 0kts
09-Sep-14 13:40 32.667655 -114.599574 179 205ft 0kts
09-Sep-14 13:41 32.667317 -114.595815 89 210ft 17kts
09-Sep-14 13:42 32.667347 -114.593405 88 212ft 0kts
09-Sep-14 13:43 32.667352 -114.593192 88 212ft 6kts
09-Sep-14 13:44 32.667360 -114.592532 89 213ft 0kts
09-Sep-14 13:45 32.667382 -114.591726 88 215ft 12kts
09-Sep-14 13:46 32.650389 -114.611836 227 1522ft 139kts
09-Sep-14 13:47 32.616072 -114.635575 198 3741ft 150kts
09-Sep-14 13:48 32.584116 -114.616664 77 4960ft 175kts
09-Sep-14 13:49 32.640589 -114.570758 15 5660ft 254kts
09-Sep-14 13:50 32.702922 -114.585074 344 7244ft 287kts
09-Sep-14 13:51 32.781626 -114.608295 329 10278ft 310kts
09-Sep-14 13:52 32.851647 -114.691494 314 11098ft 403kts
09-Sep-14 13:53 32.934817 -114.784114 316 14323ft 421kts
09-Sep-14 13:54 33.021866 -114.880097 309 17184ft 435kts
09-Sep-14 13:55 33.019639 -115.010682 226 19235ft 442kts
09-Sep-14 13:56 32.922357 -115.100026 235 20117ft 447kts
09-Sep-14 13:57 32.855490 -115.249229 244 20111ft 446kts
09-Sep-14 13:58 32.810004 -115.360148 244 20111ft 447kts
09-Sep-14 13:59 32.757062 -115.493069 254 19995ft 445kts
09-Sep-14 14:00 32.752525 -115.639863 271 20001ft 446kts
09-Sep-14 14:01 32.755908 -115.787319 271 20001ft 446kts
09-Sep-14 14:02 32.758831 -115.909826 272 20000ft 446kts
09-Sep-14 14:03 32.835095 -116.052711 304 20000ft 450kts
09-Sep-14 14:04 32.888288 -116.143059 303 20001ft 450kts
09-Sep-14 14:05 32.959023 -116.266328 302 20001ft 452kts
09-Sep-14 14:06 33.053070 -116.431432 302 20001ft 452kts
09-Sep-14 14:07 33.099777 -116.513710 302 20000ft 452kts
09-Sep-14 14:08 33.178604 -116.629783 318 19998ft 455kts
09-Sep-14 14:09 33.273639 -116.729593 316 20001ft 451kts
09-Sep-14 14:10 33.366506 -116.829274 316 20001ft 449kts
09-Sep-14 14:11 33.459085 -116.928982 316 20000ft 449kts
09-Sep-14 14:12 33.546737 -117.023823 316 20000ft 448kts
09-Sep-14 14:13 33.636708 -117.121441 316 19112ft 438kts
09-Sep-14 14:14 33.718996 -117.210720 315 18292ft 365kts
09-Sep-14 14:15 33.816585 -117.317399 316 16112ft 348kts
09-Sep-14 14:16 33.863098 -117.368377 316 14861ft 342kts
09-Sep-14 14:17 33.930571 -117.442448 316 13148ft 336kts
09-Sep-14 14:18 33.986971 -117.515336 289 11436ft 297kts
09-Sep-14 14:19 34.014068 -117.604345 291 10459ft 290kts
09-Sep-14 14:20 34.006906 -117.693844 262 9939ft 291kts
09-Sep-14 14:21 33.995232 -117.802216 264 8805ft 285kts
09-Sep-14 14:22 33.988013 -117.875158 264 7819ft 281kts
09-Sep-14 14:23 33.980310 -117.953231 265 6785ft 271kts
09-Sep-14 14:24 33.972921 -118.027854 265 5762ft 266kts
09-Sep-14 14:25 33.966485 -118.092200 265 4855ft 237kts
09-Sep-14 14:26 33.960819 -118.149891 265 4003ft 201kts
09-Sep-14 14:27 33.955192 -118.206396 265 3040ft 197kts
09-Sep-14 14:28 33.949804 -118.259971 265 2145ft 178kts
09-Sep-14 14:29 33.945077 -118.306642 266 1359ft 138kts
09-Sep-14 14:30 33.940609 -118.351078 266 646ft 138kts
09-Sep-14 14:31 33.936222 -118.393836 267 109ft 107kts
09-Sep-14 14:32 33.933743 -118.402792 200 120ft 13kts

Navigation Log

Ident Type
Flight plan parsing failed, navigation log unavailable